Time;durP1;ratioP1;P1;durP2;ratioP2;P2;SDS_P1;SDS_P2;PMS_P1;PMS_P2;Temp;Humidity;BMP_temperature;BMP_pressure;BME280_temperature;BME280_humidity;BME280_pressure;Samples;Min_cycle;Max_cycle;Signal;HPM_P1;HPM_P2
2022/08/30 00:03:05;;;;;;;6.13;3.50;;;;;;;22.28;48.29;101910.88;5071362;28;20118;-67
2022/08/30 00:05:33;;;;;;;7.93;3.85;;;;;;;22.25;48.58;101922.13;5052303;28;20049;-67
2022/08/30 00:08:00;;;;;;;10.15;3.78;;;;;;;22.24;48.64;101920.41;5086008;28;20048;-67
2022/08/30 00:10:28;;;;;;;8.45;4.18;;;;;;;22.24;49.00;101914.09;5091637;28;20063;-67
2022/08/30 00:12:57;;;;;;;9.77;3.95;;;;;;;22.22;48.85;101916.13;5091670;28;20051;-66
2022/08/30 00:15:24;;;;;;;6.95;3.47;;;;;;;22.20;48.43;101919.88;5092078;28;20056;-66
2022/08/30 00:17:50;;;;;;;8.20;4.40;;;;;;;22.19;48.75;101915.41;5090170;28;20398;-66
2022/08/30 00:20:21;;;;;;;9.32;4.15;;;;;;;22.16;48.96;101903.94;5075032;28;20044;-66
2022/08/30 00:22:47;;;;;;;9.32;4.22;;;;;;;22.13;48.84;101907.00;5073524;28;20043;-66
2022/08/30 00:25:15;;;;;;;7.85;3.90;;;;;;;22.08;48.98;101904.72;5090724;28;20040;-66
2022/08/30 00:27:42;;;;;;;7.53;4.40;;;;;;;22.02;49.16;101902.59;5080255;28;20533;-66
2022/08/30 00:30:12;;;;;;;5.38;3.97;;;;;;;21.97;49.00;101904.94;5052929;28;20411;-67
2022/08/30 00:32:39;;;;;;;8.45;4.30;;;;;;;21.93;49.21;101910.88;5070527;28;20060;-66
2022/08/30 00:35:08;;;;;;;7.30;4.22;;;;;;;21.91;49.48;101904.72;5071468;28;20130;-67
2022/08/30 00:37:34;;;;;;;6.55;4.20;;;;;;;21.91;49.22;101904.72;5070382;28;20052;-66
2022/08/30 00:40:04;;;;;;;6.75;4.10;;;;;;;21.90;49.52;101906.59;5070926;28;20045;-67
2022/08/30 00:42:31;;;;;;;6.45;4.22;;;;;;;21.89;49.33;101915.81;5070603;28;20367;-66
2022/08/30 00:45:30;;;;;;;8.40;4.55;;;;;;;21.85;49.60;101912.53;5070726;28;20514;-66
2022/08/30 00:47:58;;;;;;;7.10;4.30;;;;;;;21.83;49.36;101916.44;5082161;28;20052;-66
2022/08/30 00:50:31;;;;;;;7.35;4.35;;;;;;;21.77;49.72;101914.34;5073800;28;20044;-66
2022/08/30 00:53:00;;;;;;;5.10;4.47;;;;;;;21.72;49.69;101908.47;5093534;28;20056;-67
2022/08/30 00:55:29;;;;;;;13.65;4.90;;;;;;;21.70;49.94;101913.22;5096170;28;20040;-67
2022/08/30 00:58:00;;;;;;;7.07;4.80;;;;;;;21.67;50.02;101914.41;5095817;28;20055;-66
2022/08/30 01:00:30;;;;;;;8.88;4.95;;;;;;;21.63;50.08;101907.53;5096440;28;20123;-66
2022/08/30 01:02:56;;;;;;;6.60;4.38;;;;;;;21.60;50.16;101907.84;5096126;28;20047;-67
2022/08/30 01:05:28;;;;;;;7.90;4.95;;;;;;;21.56;50.16;101920.97;5077981;28;20517;-67
2022/08/30 01:07:55;;;;;;;6.88;4.43;;;;;;;21.52;49.83;101916.78;5082217;28;20037;-66
2022/08/30 01:10:22;;;;;;;6.97;4.22;;;;;;;21.49;50.09;101914.34;5075556;28;20040;-67
2022/08/30 01:12:48;;;;;;;8.52;5.05;;;;;;;21.47;50.24;101916.38;5075213;28;20051;-67
2022/08/30 01:15:17;;;;;;;7.03;5.10;;;;;;;21.47;50.24;101926.47;5041223;28;20045;-67
2022/08/30 01:17:46;;;;;;;6.53;4.28;;;;;;;21.47;50.36;101926.47;5053605;28;20045;-68
2022/08/30 01:20:25;;;;;;;5.30;4.22;;;;;;;21.46;50.55;101927.47;5053543;28;20052;-67
2022/08/30 01:22:52;;;;;;;8.68;5.07;;;;;;;21.43;50.51;101917.72;5053514;28;20402;-67
2022/08/30 01:25:23;;;;;;;10.23;5.00;;;;;;;21.40;50.29;101923.47;5053832;28;20048;-67
2022/08/30 01:28:00;;;;;;;8.18;4.88;;;;;;;21.38;50.51;101922.78;5069744;28;20045;-68
2022/08/30 01:30:28;;;;;;;10.30;4.93;;;;;;;21.36;50.72;101930.25;5073943;28;20041;-67
2022/08/30 01:32:58;;;;;;;5.95;4.97;;;;;;;21.35;50.87;101927.69;5073213;28;20447;-67
2022/08/30 01:35:27;;;;;;;7.40;4.90;;;;;;;21.32;50.40;101928.00;5062759;28;20045;-67
2022/08/30 01:37:55;;;;;;;11.68;4.70;;;;;;;21.31;50.67;101934.47;5053410;28;20045;-66
2022/08/30 01:40:21;;;;;;;7.88;4.65;;;;;;;21.31;51.05;101926.28;5071869;28;20406;-67
2022/08/30 01:42:49;;;;;;;8.88;5.13;;;;;;;21.29;50.91;101934.63;5073124;28;20485;-66
2022/08/30 01:45:20;;;;;;;7.97;5.75;;;;;;;21.28;51.12;101929.31;5072066;28;20520;-67
2022/08/30 01:47:49;;;;;;;6.60;4.95;;;;;;;21.31;50.84;101937.19;5072086;28;20494;-66
2022/08/30 01:50:16;;;;;;;7.43;5.63;;;;;;;21.30;51.45;101932.75;5071207;28;20473;-67
2022/08/30 01:52:42;;;;;;;6.88;4.82;;;;;;;21.32;51.02;101931.59;5071787;28;20552;-67
2022/08/30 01:55:09;;;;;;;7.72;5.40;;;;;;;21.32;51.17;101928.00;5073060;28;20048;-67
2022/08/30 01:57:35;;;;;;;8.75;5.00;;;;;;;21.30;51.23;101927.28;5072010;28;20040;-67
2022/08/30 02:00:06;;;;;;;6.38;5.20;;;;;;;21.28;51.29;101923.84;5073081;28;20044;-67
2022/08/30 02:02:37;;;;;;;6.30;5.30;;;;;;;21.27;51.13;101930.31;5071965;28;20045;-67
2022/08/30 02:05:05;;;;;;;8.98;5.57;;;;;;;21.25;51.63;101919.53;5073336;28;20050;-67
2022/08/30 02:07:31;;;;;;;6.50;5.32;;;;;;;21.23;51.25;101921.56;5073188;28;20040;-67
2022/08/30 02:09:58;;;;;;;7.50;5.28;;;;;;;21.23;51.37;101918.84;5072822;28;20047;-67
2022/08/30 02:12:24;;;;;;;7.03;5.43;;;;;;;21.21;51.20;101913.50;5072630;28;20073;-67
2022/08/30 02:14:56;;;;;;;11.63;5.88;;;;;;;21.21;51.53;101909.91;5064897;28;20501;-68
2022/08/30 02:17:23;;;;;;;6.60;5.38;;;;;;;21.17;51.56;101901.16;5063586;28;20060;-68
2022/08/30 02:19:50;;;;;;;7.95;5.38;;;;;;;21.16;51.75;101899.44;5072610;28;20106;-68
2022/08/30 02:22:17;;;;;;;7.85;6.05;;;;;;;21.14;51.56;101906.06;5054767;28;20057;-67
2022/08/30 02:24:44;;;;;;;9.05;5.68;;;;;;;21.11;51.91;101906.38;5072741;28;20087;-67
2022/08/30 02:27:11;;;;;;;8.43;5.88;;;;;;;21.08;51.73;101904.78;5081121;28;20040;-67
2022/08/30 02:29:38;;;;;;;7.45;5.43;;;;;;;21.06;51.90;101900.50;5092616;28;20040;-67
2022/08/30 02:32:04;;;;;;;8.27;6.03;;;;;;;21.02;51.88;101902.66;5092669;28;20044;-67
2022/08/30 02:34:34;;;;;;;9.82;6.50;;;;;;;20.97;51.95;101898.66;5093250;28;20094;-68
2022/08/30 02:37:01;;;;;;;8.10;6.25;;;;;;;20.96;52.13;101905.16;5069773;28;20036;-67
2022/08/30 02:39:27;;;;;;;7.70;6.28;;;;;;;20.94;52.04;101908.88;5083510;28;20040;-67
2022/08/30 02:41:54;;;;;;;9.80;6.15;;;;;;;20.92;52.09;101907.31;5092456;28;20058;-67
2022/08/30 02:44:21;;;;;;;9.07;6.15;;;;;;;20.89;52.26;101904.88;5074880;28;20058;-67
2022/08/30 02:46:47;;;;;;;9.13;6.78;;;;;;;20.87;51.95;101906.91;5092502;28;20048;-67
2022/08/30 02:49:15;;;;;;;7.90;6.78;;;;;;;20.83;52.14;101909.09;5092578;28;20513;-67
2022/08/30 02:52:04;;;;;;;9.43;7.00;;;;;;;20.82;52.37;101910.09;5078549;28;20041;-67
2022/08/30 02:54:32;;;;;;;6.43;5.80;;;;;;;20.84;52.39;101909.94;5054492;28;20072;-68
2022/08/30 02:57:03;;;;;;;7.15;6.43;;;;;;;20.84;52.29;101902.63;5072020;28;20091;-67
2022/08/30 02:59:30;;;;;;;10.27;6.53;;;;;;;20.87;52.56;101901.44;5072321;28;20439;-67
2022/08/30 03:01:57;;;;;;;8.63;7.32;;;;;;;20.87;52.59;101896.84;5072350;28;20056;-67
2022/08/30 03:04:23;;;;;;;7.97;6.82;;;;;;;20.87;52.31;101890.53;5073224;28;20434;-67
2022/08/30 03:06:52;;;;;;;9.75;6.97;;;;;;;20.84;52.42;101897.16;5072582;28;20044;-67
2022/08/30 03:09:19;;;;;;;9.10;7.15;;;;;;;20.84;52.64;101899.88;5072749;28;20045;-68
2022/08/30 03:11:46;;;;;;;8.25;6.72;;;;;;;20.84;52.66;101899.03;5072347;28;20040;-67
2022/08/30 03:14:12;;;;;;;9.02;7.05;;;;;;;20.83;52.47;101908.22;5072649;28;20064;-67
2022/08/30 03:16:39;;;;;;;8.93;6.70;;;;;;;20.80;52.41;101895.69;5087488;28;20040;-67
2022/08/30 03:19:05;;;;;;;7.72;6.82;;;;;;;20.78;52.80;101891.41;5091553;28;20115;-68
2022/08/30 03:21:32;;;;;;;7.50;6.80;;;;;;;20.78;52.59;101891.41;5091570;28;20044;-68
2022/08/30 03:24:00;;;;;;;9.48;7.00;;;;;;;20.77;52.43;101893.25;5091665;28;20043;-67
2022/08/30 03:26:26;;;;;;;7.43;6.63;;;;;;;20.76;52.86;101887.97;5091590;28;20044;-67
2022/08/30 03:28:53;;;;;;;8.70;6.80;;;;;;;20.74;52.54;101890.84;5072597;28;20526;-68
2022/08/30 03:31:19;;;;;;;9.00;6.70;;;;;;;20.72;52.95;101892.00;5071266;28;20044;-68
2022/08/30 03:33:49;;;;;;;7.25;6.53;;;;;;;20.70;52.73;101891.28;5071135;28;20063;-68
2022/08/30 03:36:16;;;;;;;10.32;7.25;;;;;;;20.67;52.64;101897.03;5071111;28;20131;-68
2022/08/30 03:38:42;;;;;;;9.02;7.28;;;;;;;20.63;52.90;101891.88;5071198;28;20047;-68
2022/08/30 03:41:09;;;;;;;8.43;7.05;;;;;;;20.61;52.71;101890.31;5089764;28;20059;-68
2022/08/30 03:43:40;;;;;;;8.50;7.60;;;;;;;20.57;52.87;101887.03;5091405;28;20032;-68
2022/08/30 03:46:09;;;;;;;9.43;7.95;;;;;;;20.56;52.91;101892.63;5091401;28;20432;-68
2022/08/30 03:48:36;;;;;;;8.25;7.45;;;;;;;20.54;53.10;101897.38;5091162;28;20048;-68
2022/08/30 03:51:03;;;;;;;11.98;8.35;;;;;;;20.53;52.87;101893.78;5089027;28;20495;-68
2022/08/30 03:53:33;;;;;;;9.55;8.32;;;;;;;20.53;53.01;101895.66;5071269;28;20044;-68
2022/08/30 03:55:59;;;;;;;8.88;7.88;;;;;;;20.52;53.19;101897.53;5070988;28;20048;-67
2022/08/30 03:58:26;;;;;;;11.60;8.10;;;;;;;20.52;52.92;101893.94;5071016;28;20582;-67
2022/08/30 04:00:52;;;;;;;9.40;7.88;;;;;;;20.53;53.30;101892.94;5070947;28;20060;-67
2022/08/30 04:03:24;;;;;;;10.63;8.20;;;;;;;20.50;53.13;101896.81;5055551;28;20079;-68
2022/08/30 04:05:55;;;;;;;11.07;8.73;;;;;;;20.44;53.02;101902.88;5090906;28;20127;-67
2022/08/30 04:08:22;;;;;;;10.18;8.30;;;;;;;20.42;53.18;101902.16;5091328;28;20044;-67
2022/08/30 04:10:48;;;;;;;11.25;8.70;;;;;;;20.40;53.35;101903.31;5091531;28;20036;-67
2022/08/30 04:13:21;;;;;;;9.73;8.73;;;;;;;20.38;53.43;101899.81;5091119;28;20074;-68
2022/08/30 04:15:48;;;;;;;10.25;8.63;;;;;;;20.35;53.63;101900.97;5089903;28;20036;-67
2022/08/30 04:18:15;;;;;;;11.73;9.23;;;;;;;20.33;53.33;101891.22;5091009;28;20123;-67
2022/08/30 04:20:42;;;;;;;10.23;9.25;;;;;;;20.29;53.80;101902.44;5091131;28;20040;-68
2022/08/30 04:23:13;;;;;;;9.85;8.32;;;;;;;20.25;53.37;101898.28;5087070;28;20032;-69
2022/08/30 04:25:41;;;;;;;9.68;8.65;;;;;;;20.24;53.87;101898.41;5070633;28;20502;-67
2022/08/30 04:28:08;;;;;;;11.60;9.05;;;;;;;20.22;53.70;101914.06;5074603;28;20047;-68
2022/08/30 04:30:39;;;;;;;11.10;9.15;;;;;;;20.20;53.89;101906.03;5074406;28;20494;-67
2022/08/30 04:33:06;;;;;;;11.50;8.82;;;;;;;20.18;53.58;101908.06;5074491;28;20051;-67
2022/08/30 04:35:32;;;;;;;11.90;9.63;;;;;;;20.15;53.50;101902.88;5074509;28;20466;-68
2022/08/30 04:37:59;;;;;;;12.18;9.80;;;;;;;20.12;53.97;101908.63;5074471;28;20072;-67
2022/08/30 04:40:25;;;;;;;10.43;9.43;;;;;;;20.09;54.10;101899.88;5088947;28;20036;-68
2022/08/30 04:42:53;;;;;;;11.10;9.73;;;;;;;20.08;53.76;101906.34;5090310;28;20045;-68
2022/08/30 04:45:21;;;;;;;14.60;10.00;;;;;;;20.07;54.14;101913.66;5074714;28;20051;-68
2022/08/30 04:47:48;;;;;;;10.50;9.30;;;;;;;20.06;54.29;101913.78;5074247;28;20063;-68
2022/08/30 04:50:17;;;;;;;10.93;9.82;;;;;;;20.03;54.42;101909.47;5074435;28;20048;-67
2022/08/30 04:52:44;;;;;;;11.63;10.43;;;;;;;20.03;54.03;101909.47;5092165;28;20040;-68
2022/08/30 04:55:15;;;;;;;11.75;10.55;;;;;;;20.02;54.53;101913.19;5094646;28;20044;-68
2022/08/30 04:57:45;;;;;;;11.27;9.77;;;;;;;20.02;54.54;101926.84;5094220;28;20056;-68
2022/08/30 05:00:13;;;;;;;10.93;8.77;;;;;;;20.01;54.58;101925.13;5094466;28;20286;-67
2022/08/30 05:02:40;;;;;;;11.88;9.85;;;;;;;20.04;54.27;101929.41;5074993;28;20048;-68
2022/08/30 05:07:56;;;;;;;12.80;10.05;;;;;;;20.03;54.62;101925.81;5094251;28;20036;-68
2022/08/30 05:10:24;;;;;;;12.80;9.30;;;;;;;20.05;54.66;101925.69;5094414;28;20059;-68
2022/08/30 05:12:50;;;;;;;11.25;9.45;;;;;;;20.06;54.45;101931.00;5093995;28;20040;-67
2022/08/30 05:15:18;;;;;;;11.40;9.60;;;;;;;20.06;54.28;101932.88;5080113;28;20479;-67
2022/08/30 05:17:45;;;;;;;13.20;9.80;;;;;;;20.06;54.42;101935.59;5073873;28;20419;-67
2022/08/30 05:20:11;;;;;;;13.15;10.20;;;;;;;20.05;54.48;101936.59;5073717;28;20048;-69
2022/08/30 05:22:40;;;;;;;11.98;10.45;;;;;;;20.04;54.73;101937.59;5074206;28;20054;-68
2022/08/30 05:25:11;;;;;;;10.43;9.25;;;;;;;20.03;54.42;101933.16;5075175;28;20041;-68
2022/08/30 05:27:40;;;;;;;11.65;9.45;;;;;;;20.03;54.62;101936.75;5073485;28;20067;-69
2022/08/30 05:30:07;;;;;;;12.38;11.07;;;;;;;20.03;54.52;101934.00;5073497;28;20372;-68
2022/08/30 05:32:34;;;;;;;12.93;9.95;;;;;;;20.06;54.48;101943.78;5078492;28;20499;-68
2022/08/30 05:35:05;;;;;;;10.85;9.75;;;;;;;20.08;54.56;101939.94;5094039;28;20040;-69
2022/08/30 05:37:32;;;;;;;12.13;9.98;;;;;;;20.10;54.58;101940.66;5076767;28;20086;-68
2022/08/30 05:39:58;;;;;;;12.27;10.05;;;;;;;20.11;54.43;101942.38;5072760;28;20490;-69
2022/08/30 05:42:25;;;;;;;12.15;9.60;;;;;;;20.09;54.70;101947.09;5088695;28;20044;-68
2022/08/30 05:44:56;;;;;;;12.32;10.35;;;;;;;20.10;54.74;101950.69;5083530;28;20036;-69
2022/08/30 05:47:23;;;;;;;11.20;9.73;;;;;;;20.11;54.45;101949.69;5074325;28;20044;-68
2022/08/30 05:49:50;;;;;;;12.75;10.45;;;;;;;20.11;54.60;101947.81;5090723;28;20560;-69
2022/08/30 05:52:17;;;;;;;11.70;10.45;;;;;;;20.13;54.50;101953.13;5093850;28;20040;-68
2022/08/30 05:54:44;;;;;;;12.30;9.90;;;;;;;20.17;54.99;101954.56;5093778;28;20060;-68
2022/08/30 05:57:11;;;;;;;10.48;9.38;;;;;;;20.20;54.54;101954.28;5093823;28;20050;-68
2022/08/30 05:59:37;;;;;;;10.75;9.52;;;;;;;20.20;54.60;101960.59;5094047;28;20059;-68
2022/08/30 06:02:06;;;;;;;10.93;9.15;;;;;;;20.20;54.90;101957.88;5074829;28;20051;-68
2022/08/30 06:04:35;;;;;;;11.18;10.00;;;;;;;20.23;54.60;101957.56;5094269;28;20056;-67
2022/08/30 06:07:02;;;;;;;11.00;9.10;;;;;;;20.24;54.97;101959.28;5093651;28;20052;-67
2022/08/30 06:09:29;;;;;;;10.63;9.50;;;;;;;20.27;55.01;101956.28;5094092;28;20036;-68
2022/08/30 06:11:56;;;;;;;10.23;9.20;;;;;;;20.29;54.67;101957.00;5090012;28;20044;-69
2022/08/30 06:14:27;;;;;;;13.02;9.02;;;;;;;20.30;54.93;101958.72;5080512;28;20051;-69
2022/08/30 06:16:54;;;;;;;10.43;9.05;;;;;;;20.35;55.00;101954.69;5082787;28;20044;-68
2022/08/30 06:19:22;;;;;;;11.50;8.77;;;;;;;20.39;54.73;101962.47;5080508;28;20092;-68
2022/08/30 06:21:50;;;;;;;12.20;8.70;;;;;;;20.42;54.93;101962.19;5077466;28;20050;-68
2022/08/30 06:24:17;;;;;;;10.02;8.05;;;;;;;20.44;54.86;101962.03;5072613;28;20032;-67
2022/08/30 06:26:50;;;;;;;8.73;7.82;;;;;;;20.46;54.54;101952.69;5064991;28;20469;-68
2022/08/30 06:29:18;;;;;;;11.52;8.95;;;;;;;20.49;54.68;101946.06;5092525;28;20040;-68
2022/08/30 06:31:46;;;;;;;10.60;8.65;;;;;;;20.52;55.11;101949.38;5092295;28;20405;-68
2022/08/30 06:34:16;;;;;;;9.88;8.32;;;;;;;20.56;54.58;101944.47;5092839;28;20075;-68
2022/08/30 06:36:42;;;;;;;12.38;8.60;;;;;;;20.60;54.72;101949.50;5089954;28;20070;-68
2022/08/30 06:39:09;;;;;;;10.77;8.00;;;;;;;20.65;54.72;101954.50;5092502;28;20486;-68
2022/08/30 06:41:40;;;;;;;10.18;8.18;;;;;;;20.71;55.20;101951.19;5091736;28;20059;-68
2022/08/30 06:44:42;;;;;;;9.10;7.93;;;;;;;20.83;55.22;101960.09;5072575;28;20050;-68
2022/08/30 06:47:11;;;;;;;9.13;7.45;;;;;;;20.92;54.78;101951.88;5072049;28;20586;-67
2022/08/30 06:49:37;;;;;;;9.38;8.05;;;;;;;21.02;54.65;101945.50;5087988;28;20044;-67
2022/08/30 06:52:06;;;;;;;11.18;7.60;;;;;;;21.12;54.72;101949.06;5091990;28;20068;-68
2022/08/30 06:54:33;;;;;;;10.48;7.68;;;;;;;21.23;54.54;101951.63;5092200;28;20051;-67
2022/08/30 06:57:00;;;;;;;8.48;7.50;;;;;;;21.35;54.52;101952.28;5071425;28;20383;-67
2022/08/30 06:59:27;;;;;;;9.50;7.40;;;;;;;21.47;54.27;101951.06;5092009;28;20504;-67
2022/08/30 07:01:54;;;;;;;8.35;7.22;;;;;;;21.58;54.34;101942.66;5057056;28;20044;-68
2022/08/30 07:04:23;;;;;;;7.28;6.57;;;;;;;21.70;54.40;101951.50;5071722;28;20052;-67
2022/08/30 07:06:50;;;;;;;7.88;6.25;;;;;;;21.84;54.05;101953.72;5071577;28;20514;-68
2022/08/30 07:09:18;;;;;;;7.07;6.38;;;;;;;21.98;53.83;101955.91;5071756;28;20509;-67
2022/08/30 07:11:48;;;;;;;8.82;6.00;;;;;;;22.12;53.92;101952.66;5072475;28;20041;-68
2022/08/30 07:14:17;;;;;;;6.60;5.90;;;;;;;22.25;53.36;101954.13;5053569;28;20148;-67
2022/08/30 07:16:45;;;;;;;6.97;5.30;;;;;;;22.38;53.15;101951.84;5050334;28;20463;-67
2022/08/30 07:19:16;;;;;;;8.35;5.43;;;;;;;22.55;53.31;101955.56;5050302;28;20041;-68
2022/08/30 07:21:48;;;;;;;10.57;5.80;;;;;;;22.71;52.76;101955.69;5051851;28;20076;-67
2022/08/30 07:24:40;;;;;;;5.32;4.82;;;;;;;22.88;52.75;101962.16;5054531;28;20048;-67
2022/08/30 07:27:07;;;;;;;7.82;4.82;;;;;;;23.03;52.51;101960.53;5071799;28;20049;-67
2022/08/30 07:29:33;;;;;;;6.93;4.90;;;;;;;23.17;52.22;101957.19;5071104;28;20482;-68
2022/08/30 07:32:00;;;;;;;8.02;5.18;;;;;;;23.34;52.09;101959.00;5071317;28;20052;-68
2022/08/30 07:34:26;;;;;;;7.53;4.68;;;;;;;23.52;51.83;101958.00;5071347;28;20052;-68
2022/08/30 07:36:53;;;;;;;5.20;4.68;;;;;;;23.68;51.23;101955.34;5063658;28;20394;-68
2022/08/30 07:39:19;;;;;;;3.85;3.50;;;;;;;23.80;50.97;101959.53;5051382;28;20041;-67
2022/08/30 07:41:47;;;;;;;5.65;3.08;;;;;;;23.89;50.47;101961.25;5051124;28;20049;-68
2022/08/30 07:44:15;;;;;;;5.18;3.10;;;;;;;23.96;50.21;101954.06;5051693;28;20037;-69
2022/08/30 07:46:42;;;;;;;3.92;3.03;;;;;;;24.03;50.27;101955.09;5051009;28;20057;-70
2022/08/30 07:49:10;;;;;;;6.13;2.85;;;;;;;24.13;50.02;101963.16;5050828;28;20234;-69
2022/08/30 07:51:38;;;;;;;3.20;2.47;;;;;;;24.22;49.21;101958.53;5051118;28;20037;-69
2022/08/30 07:54:09;;;;;;;5.22;2.25;;;;;;;24.29;49.20;101965.94;5050930;28;20072;-69
2022/08/30 07:56:36;;;;;;;8.02;2.45;;;;;;;24.44;49.05;101962.50;5050755;28;20519;-70
2022/08/30 07:59:03;;;;;;;4.32;2.42;;;;;;;24.58;48.93;101965.44;5052354;28;20136;-67
2022/08/30 08:01:30;;;;;;;9.40;2.00;;;;;;;24.75;48.59;101970.91;5061238;28;20041;-70
2022/08/30 08:03:58;;;;;;;3.10;1.90;;;;;;;24.85;48.19;101971.56;5062352;28;20048;-70
2022/08/30 08:06:26;;;;;;;2.65;1.70;;;;;;;24.96;48.03;101962.97;5073795;28;20392;-71
2022/08/30 08:09:01;;;;;;;3.10;2.08;;;;;;;25.03;47.47;101972.25;5074639;28;20033;-70
2022/08/30 08:11:28;;;;;;;2.80;1.77;;;;;;;25.08;47.08;101972.56;5068362;28;20048;-69
2022/08/30 08:14:02;;;;;;;2.95;1.48;;;;;;;25.13;46.63;101974.78;5057862;28;20029;-69
2022/08/30 08:16:32;;;;;;;2.05;1.50;;;;;;;25.20;46.60;101970.28;5076375;28;20044;-68
2022/08/30 08:18:59;;;;;;;2.60;1.55;;;;;;;25.27;46.33;101969.44;5076572;28;20054;-69
2022/08/30 08:21:26;;;;;;;3.67;1.70;;;;;;;25.37;46.28;101982.13;5076383;28;20044;-69
2022/08/30 08:23:54;;;;;;;2.78;1.90;;;;;;;25.43;46.00;101975.91;5094424;28;20040;-69
2022/08/30 08:26:21;;;;;;;3.10;1.23;;;;;;;25.46;45.56;101970.91;5094213;28;20518;-68
2022/08/30 08:28:48;;;;;;;6.03;1.70;;;;;;;25.53;45.45;101973.78;5094964;28;20040;-68
2022/08/30 08:31:17;;;;;;;2.55;1.60;;;;;;;25.55;45.15;101971.72;5094531;28;20055;-69
2022/08/30 08:33:46;;;;;;;4.18;1.55;;;;;;;25.57;44.87;101978.75;5093806;28;20040;-69
2022/08/30 08:36:13;;;;;;;2.15;1.73;;;;;;;25.63;45.01;101985.44;5094376;28;20040;-68
2022/08/30 08:38:40;;;;;;;3.42;1.85;;;;;;;25.67;44.57;101981.31;5094577;28;20040;-69
2022/08/30 08:41:18;;;;;;;2.90;1.70;;;;;;;25.72;44.50;101981.63;5095142;28;20044;-69
2022/08/30 08:43:46;;;;;;;2.22;1.50;;;;;;;25.78;44.20;101977.28;5094018;28;20048;-68
2022/08/30 08:46:43;;;;;;;5.72;2.20;;;;;;;25.81;44.25;101975.03;5094230;28;20557;-69
2022/08/30 08:49:11;;;;;;;7.05;2.05;;;;;;;25.92;44.03;101980.13;5086568;28;20070;-69
2022/08/30 08:54:47;;;;;;;3.40;1.77;;;;;;;26.13;43.60;101973.13;5094243;28;20039;-69
2022/08/30 08:57:13;;;;;;;5.07;1.70;;;;;;;26.22;43.34;101975.63;5093924;28;20399;-68
2022/08/30 08:59:43;;;;;;;2.40;1.50;;;;;;;26.30;43.21;101985.72;5094265;28;20036;-69
2022/08/30 09:02:26;;;;;;;3.65;1.80;;;;;;;26.34;42.68;101992.59;5093829;28;20040;-69
2022/08/30 09:04:58;;;;;;;3.28;1.52;;;;;;;26.36;42.59;101987.78;5093782;28;20090;-69
2022/08/30 09:07:38;;;;;;;3.58;1.60;;;;;;;26.37;42.47;101989.47;5093300;28;20098;-69
2022/08/30 09:10:05;;;;;;;11.38;2.00;;;;;;;26.44;42.13;101990.44;5093982;28;20054;-69
2022/08/30 09:12:32;;;;;;;2.97;1.60;;;;;;;26.54;42.33;101985.53;5093179;28;20064;-69
2022/08/30 09:15:23;;;;;;;9.98;1.88;;;;;;;26.60;41.80;101986.69;5093302;28;20035;-69
2022/08/30 09:17:55;;;;;;;5.05;1.23;;;;;;;26.68;41.75;101983.84;5093457;28;20036;-69
2022/08/30 09:20:33;;;;;;;4.03;1.40;;;;;;;26.77;41.88;101990.19;5093755;28;20043;-69
2022/08/30 09:23:29;;;;;;;1.63;1.40;;;;;;;26.89;41.30;101991.44;5093316;28;20051;-69
2022/08/30 09:26:00;;;;;;;3.75;1.77;;;;;;;27.00;41.44;101982.72;5093644;28;20054;-69
2022/08/30 09:28:33;;;;;;;2.53;1.08;;;;;;;27.10;41.10;101987.94;5075455;28;20414;-69
2022/08/30 09:31:20;;;;;;;7.35;1.88;;;;;;;27.18;40.95;101983.19;5075316;28;20475;-69
2022/08/30 09:34:04;;;;;;;3.65;1.50;;;;;;;27.24;40.67;101987.09;5093044;28;20040;-69
2022/08/30 09:36:42;;;;;;;1.70;1.10;;;;;;;27.36;40.75;101982.81;5093129;28;20413;-69
2022/08/30 09:39:24;;;;;;;1.65;1.08;;;;;;;27.48;40.34;101981.25;5093634;28;20408;-69
2022/08/30 09:41:54;;;;;;;4.97;1.50;;;;;;;27.61;40.17;101979.78;5093134;28;20040;-69
2022/08/30 09:44:30;;;;;;;3.08;1.30;;;;;;;27.71;40.02;101981.19;5093180;28;20537;-68
2022/08/30 09:47:00;;;;;;;2.67;1.10;;;;;;;27.87;40.01;101976.47;5092685;28;20062;-69
2022/08/30 09:49:34;;;;;;;3.05;1.38;;;;;;;27.99;39.71;101977.66;5075021;28;20058;-69
2022/08/30 09:52:10;;;;;;;1.80;1.20;;;;;;;28.09;39.58;101972.69;5092943;28;20040;-69
2022/08/30 09:55:00;;;;;;;2.38;1.30;;;;;;;28.22;39.24;101977.47;5093040;28;20048;-69
2022/08/30 09:57:46;;;;;;;1.63;1.17;;;;;;;28.33;39.16;101977.00;5092640;28;20047;-68
2022/08/30 10:00:20;;;;;;;4.13;1.10;;;;;;;28.38;38.77;101978.13;5092994;28;20036;-69
2022/08/30 10:03:06;;;;;;;1.50;1.17;;;;;;;28.43;38.65;101972.84;5092230;28;20109;-69
2022/08/30 10:06:09;;;;;;;1.10;1.00;;;;;;;28.49;38.42;101965.66;5092768;28;20054;-69
2022/08/30 10:08:55;;;;;;;1.20;0.75;;;;;;;28.55;38.06;101964.00;5092684;28;20075;-69
2022/08/30 10:11:30;;;;;;;3.23;1.03;;;;;;;28.54;38.17;101968.69;5092781;28;20055;-69
2022/08/30 10:14:17;;;;;;;2.80;0.98;;;;;;;28.52;38.07;101972.69;5092493;28;20051;-68
2022/08/30 10:16:51;;;;;;;2.45;1.02;;;;;;;28.53;37.90;101961.44;5092372;28;20402;-70
2022/08/30 10:19:38;;;;;;;;;;;;;;;28.54;38.18;101968.69;5092731;28;20064;-69
2022/08/30 10:22:23;;;;;;;5.25;1.00;;;;;;;28.60;37.99;101967.03;5092312;28;19927;-69
2022/08/30 10:24:56;;;;;;;3.15;1.13;;;;;;;28.60;37.75;101970.66;5091893;28;20500;-69
2022/08/30 10:27:37;;;;;;;4.57;1.20;;;;;;;28.66;37.51;101966.22;5092338;28;20075;-69
2022/08/30 10:30:06;;;;;;;2.33;1.23;;;;;;;28.70;37.42;101964.78;5092484;28;20044;-69
2022/08/30 10:32:42;;;;;;;1.75;1.20;;;;;;;28.70;37.00;101953.72;5092129;28;20040;-69
2022/08/30 10:35:16;;;;;;;4.43;1.30;;;;;;;28.70;37.11;101962.84;5092082;28;20494;-69
2022/08/30 10:37:57;;;;;;;3.15;1.10;;;;;;;28.74;36.92;101960.53;5092154;28;20044;-67
2022/08/30 10:43:51;;;;;;;4.70;1.50;;;;;;;28.93;36.50;101959.84;5091829;28;20428;-69
2022/08/30 10:46:24;;;;;;;4.28;1.38;;;;;;;29.06;36.64;101954.44;5064126;28;20056;-72
2022/08/30 10:48:52;;;;;;;3.13;1.40;;;;;;;29.19;36.20;101963.88;5072074;28;20041;-69
2022/08/30 10:51:27;;;;;;;1.80;0.90;;;;;;;29.24;35.95;101961.34;5072048;28;20040;-70
2022/08/30 10:54:12;;;;;;;5.50;1.85;;;;;;;29.37;35.97;101965.03;5071589;28;20170;-70
2022/08/30 10:56:49;;;;;;;4.05;1.27;;;;;;;29.53;35.92;101963.00;5071897;28;20060;-70
2022/08/30 10:59:18;;;;;;;5.03;1.50;;;;;;;29.64;35.69;101956.84;5072003;28;20047;-70
2022/08/30 11:02:02;;;;;;;5.35;1.48;;;;;;;29.74;35.36;101954.56;5071835;28;20036;-70
2022/08/30 11:04:57;;;;;;;1.83;1.30;;;;;;;29.77;35.11;101945.84;5054441;28;20409;-71
2022/08/30 11:07:32;;;;;;;6.65;1.17;;;;;;;29.77;35.04;101956.06;5084238;28;20071;-70
2022/08/30 11:10:07;;;;;;;4.85;1.50;;;;;;;29.80;34.79;101942.66;5091880;28;20063;-71
2022/08/30 11:12:50;;;;;;;6.68;1.40;;;;;;;29.85;34.71;101945.66;5091876;28;20044;-70
2022/08/30 11:15:21;;;;;;;7.32;1.95;;;;;;;29.93;34.59;101939.06;5091624;28;20509;-70
2022/08/30 11:18:00;;;;;;;4.10;1.20;;;;;;;29.99;34.53;101938.22;5089718;28;20046;-70
2022/08/30 11:20:35;;;;;;;3.30;1.30;;;;;;;30.12;34.47;101942.97;5092045;28;20040;-70
2022/08/30 11:23:32;;;;;;;3.00;1.00;;;;;;;30.22;34.20;101932.31;5091968;28;20044;-70
2022/08/30 11:26:04;;;;;;;3.35;1.20;;;;;;;30.38;34.09;101934.66;5091928;28;20048;-69
2022/08/30 11:28:37;;;;;;;3.22;1.40;;;;;;;30.51;33.92;101937.44;5091858;28;20536;-70
2022/08/30 11:31:19;;;;;;;2.35;1.50;;;;;;;30.55;33.61;101938.72;5092278;28;20109;-69
2022/08/30 11:34:11;;;;;;;3.63;1.20;;;;;;;30.62;33.58;101938.75;5080940;28;20041;-70
2022/08/30 11:36:37;;;;;;;5.47;1.65;;;;;;;30.74;33.62;101931.47;5071047;28;20072;-69
2022/08/30 11:39:50;;;;;;;3.63;1.27;;;;;;;30.80;33.09;101941.72;5071710;28;20037;-70
2022/08/30 11:42:37;;;;;;;8.00;1.42;;;;;;;30.83;32.85;101938.50;5071724;28;20071;-70
2022/08/30 11:45:20;;;;;;;4.40;1.30;;;;;;;30.87;32.64;101931.44;5053989;28;20056;-71
2022/08/30 11:48:04;;;;;;;2.80;1.20;;;;;;;30.93;32.81;101935.28;5071557;28;20132;-70
2022/08/30 11:50:52;;;;;;;2.25;1.20;;;;;;;30.95;32.70;101924.81;5037613;28;20047;-69